Whitneyville, Connecticut
Current Conditions -  °F | °C
As of 4:00 PM on Thursday 27 Nov 2014 (Local Time) from KHVN Reporting Station
Overcast Overcast  
Wind Chill: 33°   Ceiling: 5000
Heat Index: 38°   Visibility: 10mi
Dew Point: 31°   Wind: 7mph
Humidity: 76%   Direction: 350°N
Pressure: 29.98"   Gusts: NA
Location:  41.3475°N, 72.9054°W
Report Text: KHVN 272100Z 35006KT 10SM FEW014 SCT021 OVC050 03/M01 A2998 RMK AO2 T00331006
Loading
Personal Weather Stations






























Interactive Weather Map New forecast layout! Learn more

10-Day Weather Forecast

Advertisements
Track Severe Weather on mobile